createdAt,value
2023-01-11T00:00:47.310Z,100703.13
2023-01-11T00:03:14.356Z,100692.53
2023-01-11T00:05:42.600Z,100696.38
2023-01-11T00:08:12.193Z,100691.94
2023-01-11T00:10:39.854Z,100689.75
2023-01-11T00:13:06.951Z,100676.28
2023-01-11T00:15:35.557Z,100682.84
2023-01-11T00:18:03.029Z,100685.44
2023-01-11T00:20:29.623Z,100680.97
2023-01-11T00:22:56.247Z,100681.53
2023-01-11T00:25:22.928Z,100675.06
2023-01-11T00:27:49.682Z,100677.63
2023-01-11T00:30:17.888Z,100659.00
2023-01-11T00:32:48.930Z,100667.44
2023-01-11T00:35:19.253Z,100660.72
2023-01-11T00:37:45.805Z,100652.84
2023-01-11T00:40:12.539Z,100661.94
2023-01-11T00:42:58.000Z,100661.66
2023-01-11T00:45:43.235Z,100648.47
2023-01-11T00:48:10.852Z,100653.31
2023-01-11T00:50:44.312Z,100647.00
2023-01-11T00:53:10.944Z,100663.91
2023-01-11T00:55:37.716Z,100657.47
2023-01-11T00:58:07.048Z,100659.00
2023-01-11T01:00:36.116Z,100653.56
2023-01-11T01:03:02.752Z,100640.22
2023-01-11T01:05:29.536Z,100648.63
2023-01-11T01:07:56.051Z,100649.50
2023-01-11T01:10:24.972Z,100643.34
2023-01-11T01:13:10.185Z,100646.63
2023-01-11T01:15:36.827Z,100652.78
2023-01-11T01:18:03.497Z,100658.78
2023-01-11T01:20:30.105Z,100657.09
2023-01-11T01:23:01.248Z,100658.63
2023-01-11T01:25:30.341Z,100654.03
2023-01-11T01:27:56.854Z,100655.50
2023-01-11T01:30:23.420Z,100659.47
2023-01-11T01:32:49.989Z,100664.63
2023-01-11T01:35:16.564Z,100662.63
2023-01-11T01:37:44.235Z,100643.97
2023-01-11T01:40:11.187Z,100666.03
2023-01-11T01:42:37.735Z,100665.72
2023-01-11T01:45:28.570Z,100663.84
2023-01-11T01:48:06.886Z,100657.72
2023-01-11T01:50:37.577Z,100648.81
2023-01-11T01:53:12.770Z,100646.63
2023-01-11T01:55:43.163Z,100644.59
2023-01-11T01:58:13.784Z,100651.63
2023-01-11T02:00:44.675Z,100641.94
2023-01-11T02:03:16.577Z,100652.84
2023-01-11T02:05:43.750Z,100646.41
2023-01-11T02:08:19.397Z,100652.41
2023-01-11T02:10:46.253Z,100643.91
2023-01-11T02:13:15.480Z,100643.75
2023-01-11T02:15:42.113Z,100637.19
2023-01-11T02:18:15.183Z,100647.16
2023-01-11T02:20:50.899Z,100641.38
2023-01-11T02:23:32.884Z,100641.84
2023-01-11T02:25:59.353Z,100653.72
2023-01-11T02:29:04.616Z,100651.53
2023-01-11T02:31:34.154Z,100651.22
2023-01-11T02:34:22.459Z,100639.09
2023-01-11T02:36:57.973Z,100636.22
2023-01-11T02:39:43.730Z,100645.28
2023-01-11T02:42:56.777Z,100637.09
2023-01-11T02:45:46.260Z,100638.94
2023-01-11T02:48:35.102Z,100636.59
2023-01-11T02:51:17.283Z,100642.06
2023-01-11T02:53:49.297Z,100640.88
2023-01-11T02:56:23.765Z,100644.31
2023-01-11T02:58:53.090Z,100641.25
2023-01-11T03:01:22.659Z,100634.94
2023-01-11T03:03:50.370Z,100627.94
2023-01-11T03:06:28.656Z,100640.25
2023-01-11T03:09:33.407Z,100635.47
2023-01-11T03:12:47.123Z,100631.59
2023-01-11T03:15:32.214Z,100627.28
2023-01-11T03:18:12.945Z,100632.28
2023-01-11T03:20:50.593Z,100628.38
2023-01-11T03:23:23.695Z,100631.63
2023-01-11T03:26:11.846Z,100613.84
2023-01-11T03:29:05.961Z,100589.69
2023-01-11T03:32:15.203Z,100629.44
2023-01-11T03:34:58.164Z,100631.00
2023-01-11T03:37:31.389Z,100628.06
2023-01-11T03:40:07.159Z,100626.22
2023-01-11T03:42:35.408Z,100620.06
2023-01-11T03:45:03.390Z,100634.94
2023-01-11T03:47:32.960Z,100630.50
2023-01-11T03:50:11.360Z,100631.06
2023-01-11T03:52:42.320Z,100626.75
2023-01-11T03:55:15.116Z,100629.16
2023-01-11T03:57:51.456Z,100625.59
2023-01-11T04:00:20.555Z,100643.34
2023-01-11T04:02:47.187Z,100643.19
2023-01-11T04:05:13.782Z,100643.50
2023-01-11T04:07:40.484Z,100656.00
2023-01-11T04:10:08.019Z,100657.53
2023-01-11T04:12:34.532Z,100649.34
2023-01-11T04:15:03.148Z,100663.72
2023-01-11T04:17:29.768Z,100662.84
2023-01-11T04:19:56.314Z,100670.19
2023-01-11T04:22:22.807Z,100676.19
2023-01-11T04:24:49.353Z,100658.91
2023-01-11T04:27:18.323Z,100679.78
2023-01-11T04:29:44.901Z,100663.56
2023-01-11T04:32:11.441Z,100670.25
2023-01-11T04:34:37.950Z,100667.16
2023-01-11T04:37:06.812Z,100668.69
2023-01-11T04:39:33.325Z,100671.25
2023-01-11T04:42:18.356Z,100666.28
2023-01-11T04:44:49.354Z,100671.25
2023-01-11T04:47:17.682Z,100663.72
2023-01-11T04:49:45.395Z,100668.19
2023-01-11T04:52:13.520Z,100656.22
2023-01-11T04:54:40.377Z,100678.28
2023-01-11T04:57:07.410Z,100686.84
2023-01-11T04:59:33.906Z,100680.53
2023-01-11T05:02:00.465Z,100681.53
2023-01-11T05:04:27.051Z,100692.16
2023-01-11T05:06:53.778Z,100700.03
2023-01-11T05:09:22.638Z,100694.56
2023-01-11T05:11:49.726Z,100700.88
2023-01-11T05:14:16.730Z,100705.34
2023-01-11T05:16:43.833Z,100693.72
2023-01-11T05:19:11.720Z,100704.31
2023-01-11T05:21:40.431Z,100712.53
2023-01-11T05:24:13.207Z,100723.63
2023-01-11T05:26:41.867Z,100710.97
2023-01-11T05:29:11.114Z,100701.59
2023-01-11T05:31:41.080Z,100712.53
2023-01-11T05:34:12.238Z,100715.09
2023-01-11T05:36:39.048Z,100711.50
2023-01-11T05:39:08.580Z,100719.69
2023-01-11T05:41:40.880Z,100717.84
2023-01-11T05:44:30.185Z,100725.16
2023-01-11T05:46:56.738Z,100724.63
2023-01-11T05:49:23.325Z,100737.94
2023-01-11T05:51:52.199Z,100744.72
2023-01-11T05:54:18.846Z,100739.72
2023-01-11T05:56:47.861Z,100743.13
2023-01-11T05:59:14.429Z,100743.59
2023-01-11T06:01:41.131Z,100749.22
2023-01-11T06:04:09.885Z,100734.97
2023-01-11T06:06:36.552Z,100736.97
2023-01-11T06:09:05.357Z,100755.03
2023-01-11T06:11:31.871Z,100751.44
2023-01-11T06:13:58.644Z,100752.59
2023-01-11T06:16:25.194Z,100761.81
2023-01-11T06:18:53.116Z,100743.34
2023-01-11T06:21:21.263Z,100757.00
2023-01-11T06:23:50.842Z,100755.56
2023-01-11T06:26:19.962Z,100766.09
2023-01-11T06:28:49.204Z,100776.16
2023-01-11T06:31:18.765Z,100775.91
2023-01-11T06:33:46.455Z,100772.34
2023-01-11T06:36:14.031Z,100777.56
2023-01-11T06:38:40.999Z,100791.06
2023-01-11T06:41:08.770Z,100808.44
2023-01-11T06:43:36.975Z,100795.56
2023-01-11T06:46:04.024Z,100813.81
2023-01-11T06:48:30.675Z,100818.44
2023-01-11T06:50:58.363Z,100825.91
2023-01-11T06:53:29.349Z,100794.06
2023-01-11T06:55:58.052Z,100817.06
2023-01-11T06:58:25.869Z,100836.31
2023-01-11T07:00:54.228Z,100849.66
2023-01-11T07:03:21.625Z,100832.78
2023-01-11T07:05:48.171Z,100845.81
2023-01-11T07:08:17.636Z,100834.50
2023-01-11T07:10:44.138Z,100837.50
2023-01-11T07:13:16.304Z,100829.19
2023-01-11T07:15:44.358Z,100829.50
2023-01-11T07:18:11.550Z,100844.00
2023-01-11T07:20:38.261Z,100855.91
2023-01-11T07:23:11.113Z,100863.38
2023-01-11T07:25:37.986Z,100850.19
2023-01-11T07:28:06.519Z,100855.25
2023-01-11T07:30:44.789Z,100861.53
2023-01-11T07:33:18.704Z,100879.09
2023-01-11T07:35:48.665Z,100872.63
2023-01-11T07:38:15.273Z,100884.38
2023-01-11T07:40:42.036Z,100876.09
2023-01-11T07:43:11.476Z,100900.06
2023-01-11T07:45:45.902Z,100901.50
2023-01-11T07:48:14.044Z,100907.69
2023-01-11T07:50:44.518Z,100896.91
2023-01-11T07:53:13.015Z,100901.53
2023-01-11T07:55:40.550Z,100913.44
2023-01-11T07:58:08.673Z,100908.22
2023-01-11T08:00:35.225Z,100919.44
2023-01-11T08:03:02.637Z,100909.16
2023-01-11T08:05:29.663Z,100932.94
2023-01-11T08:07:58.412Z,100935.09
2023-01-11T08:10:27.531Z,100938.41
2023-01-11T08:13:13.207Z,100944.00
2023-01-11T08:15:42.722Z,100954.47
2023-01-11T08:18:11.798Z,100954.75
2023-01-11T08:20:39.609Z,100965.66
2023-01-11T08:23:07.825Z,100967.81
2023-01-11T08:25:34.442Z,100975.16
2023-01-11T08:28:03.012Z,100986.31
2023-01-11T08:30:33.288Z,100988.50
2023-01-11T08:33:03.946Z,101001.97
2023-01-11T08:35:31.126Z,101005.13
2023-01-11T08:37:57.890Z,101023.22
2023-01-11T08:40:25.677Z,101027.19
2023-01-11T08:42:58.713Z,101026.63
2023-01-11T08:45:28.142Z,101028.47
2023-01-11T08:47:55.509Z,101027.47
2023-01-11T08:50:23.061Z,101022.16
2023-01-11T08:52:51.498Z,101025.91
2023-01-11T08:55:19.682Z,101020.88
2023-01-11T08:57:46.332Z,101024.03
2023-01-11T09:00:13.830Z,101031.94
2023-01-11T09:02:40.489Z,101032.06
2023-01-11T09:05:07.452Z,101029.47
2023-01-11T09:07:36.409Z,101026.47
2023-01-11T09:10:03.268Z,101037.78
2023-01-11T09:12:32.521Z,101038.78
2023-01-11T09:14:59.268Z,101035.47
2023-01-11T09:17:25.829Z,101043.66
2023-01-11T09:19:52.356Z,101046.53
2023-01-11T09:22:19.323Z,101038.75
2023-01-11T09:24:46.011Z,101047.94
2023-01-11T09:27:15.163Z,101047.63
2023-01-11T09:29:41.940Z,101056.53
2023-01-11T09:32:08.630Z,101037.47
2023-01-11T09:34:37.825Z,101063.41
2023-01-11T09:37:07.042Z,101065.69
2023-01-11T09:39:37.217Z,101064.84
2023-01-11T09:42:35.543Z,101064.97
2023-01-11T09:45:07.151Z,101066.84
2023-01-11T09:47:49.175Z,101067.22
2023-01-11T09:50:22.004Z,101079.84
2023-01-11T09:52:56.271Z,101087.31
2023-01-11T09:55:33.052Z,101090.47
2023-01-11T09:58:24.147Z,101086.91
2023-01-11T10:01:22.232Z,101083.91
2023-01-11T10:04:16.294Z,101094.56
2023-01-11T10:07:28.459Z,101092.84
2023-01-11T10:18:28.736Z,101098.16
2023-01-11T10:19:40.837Z,101099.63
2023-01-11T10:22:27.908Z,101089.97
2023-01-11T10:25:05.816Z,101099.59
2023-01-11T10:27:40.811Z,101094.16
2023-01-11T10:30:37.049Z,101101.03
2023-01-11T10:33:48.763Z,101100.31
2023-01-11T10:36:29.426Z,101093.13
2023-01-11T10:39:59.531Z,101094.13
2023-01-11T10:42:29.981Z,101098.88
2023-01-11T10:45:20.123Z,101107.50
2023-01-11T10:48:02.798Z,101105.34
2023-01-11T10:51:02.964Z,101100.59
2023-01-11T10:53:37.750Z,101106.75
2023-01-11T10:56:16.337Z,101109.19
2023-01-11T10:59:05.109Z,101115.53
2023-01-11T11:01:32.981Z,101121.25
2023-01-11T11:04:18.408Z,101110.75
2023-01-11T11:06:53.925Z,101108.75
2023-01-11T11:09:34.945Z,101096.97
2023-01-11T11:12:11.860Z,101114.03
2023-01-11T11:14:57.524Z,101116.03
2023-01-11T11:17:38.736Z,101116.44
2023-01-11T11:20:18.981Z,101114.84
2023-01-11T11:22:48.737Z,101106.66
2023-01-11T11:25:20.505Z,101108.09
2023-01-11T11:27:52.569Z,101112.88
2023-01-11T11:30:32.950Z,101105.09
2023-01-11T11:33:02.041Z,101097.50
2023-01-11T11:35:59.823Z,101111.28
2023-01-11T11:38:32.104Z,101111.72
2023-01-11T11:41:07.731Z,101119.44
2023-01-11T11:43:38.495Z,101128.50
2023-01-11T11:46:18.801Z,101111.03
2023-01-11T11:49:13.168Z,101132.72
2023-01-11T11:51:41.878Z,101124.25
2023-01-11T11:54:22.881Z,101140.19
2023-01-11T11:56:52.508Z,101121.63
2023-01-11T11:59:21.355Z,101127.78
2023-01-11T12:01:56.661Z,101117.34
2023-01-11T12:04:31.181Z,101106.94
2023-01-11T12:07:15.097Z,101116.16
2023-01-11T12:09:48.711Z,101114.84
2023-01-11T12:12:21.053Z,101101.78
2023-01-11T12:15:18.627Z,101112.97
2023-01-11T12:17:46.382Z,101122.16
2023-01-11T12:20:24.225Z,101137.88
2023-01-11T12:23:08.187Z,101132.00
2023-01-11T12:25:54.951Z,101141.88
2023-01-11T12:29:01.621Z,101142.28
2023-01-11T12:32:19.343Z,101154.78
2023-01-11T12:35:04.341Z,101156.34
2023-01-11T12:37:43.049Z,101144.31
2023-01-11T12:40:12.583Z,101144.16
2023-01-11T12:43:03.065Z,101146.03
2023-01-11T12:45:59.838Z,101139.44
2023-01-11T12:48:55.847Z,101136.34
2023-01-11T12:51:44.295Z,101144.25
2023-01-11T12:54:51.667Z,101144.69
2023-01-11T12:57:51.145Z,101143.94
2023-01-11T13:00:27.947Z,101148.00
2023-01-11T13:03:13.119Z,101149.25
2023-01-11T13:06:01.839Z,101159.31
2023-01-11T13:08:53.283Z,101150.97
2023-01-11T13:11:38.115Z,101145.63
2023-01-11T13:14:28.516Z,101162.56
2023-01-11T13:17:24.314Z,101153.66
2023-01-11T13:20:05.306Z,101138.72
2023-01-11T13:22:42.932Z,101143.03
2023-01-11T13:25:22.672Z,101146.06
2023-01-11T13:27:51.657Z,101140.41
2023-01-11T13:30:24.426Z,101140.00
2023-01-11T13:33:15.124Z,101156.66
2023-01-11T13:35:50.036Z,101161.13
2023-01-11T13:38:35.535Z,101159.22
2023-01-11T13:41:30.634Z,101158.47
2023-01-11T13:44:18.462Z,101153.19
2023-01-11T13:46:57.185Z,101153.19
2023-01-11T13:49:35.954Z,101167.59
2023-01-11T13:52:27.787Z,101152.03
2023-01-11T13:55:26.021Z,101145.88
2023-01-11T13:58:16.731Z,101152.94
2023-01-11T14:00:55.040Z,101148.19
2023-01-11T14:03:52.488Z,101150.38
2023-01-11T14:06:31.163Z,101143.53
2023-01-11T14:09:07.483Z,101131.78
2023-01-11T14:11:58.506Z,101138.38
2023-01-11T14:14:30.993Z,101126.91
2023-01-11T14:17:36.627Z,101139.25
2023-01-11T14:20:22.443Z,101122.13
2023-01-11T14:23:44.892Z,101135.66
2023-01-11T14:26:22.587Z,101124.16
2023-01-11T14:29:15.716Z,101116.41
2023-01-11T14:31:53.958Z,101131.94
2023-01-11T14:34:58.762Z,101130.38
2023-01-11T14:37:56.627Z,101139.63
2023-01-11T14:40:35.165Z,101158.28
2023-01-11T14:43:04.378Z,101156.72
2023-01-11T14:45:48.974Z,101142.22
2023-01-11T14:48:53.716Z,101139.31
2023-01-11T14:51:56.964Z,101127.97
2023-01-11T14:54:47.487Z,101139.34
2023-01-11T14:58:01.253Z,101134.47
2023-01-11T15:00:27.760Z,101134.78
2023-01-11T15:03:23.128Z,101146.25
2023-01-11T15:05:58.267Z,101150.41
2023-01-11T15:08:27.522Z,101151.03
2023-01-11T15:11:01.698Z,101153.00
2023-01-11T15:13:43.235Z,101162.94
2023-01-11T15:16:37.481Z,101152.31
2023-01-11T15:19:07.818Z,101153.28
2023-01-11T15:21:49.947Z,101153.44
2023-01-11T15:24:27.446Z,101153.00
2023-01-11T15:26:55.904Z,101158.03
2023-01-11T15:29:28.157Z,101144.22
2023-01-11T15:31:54.908Z,101152.56
2023-01-11T15:34:27.192Z,101154.09
2023-01-11T15:37:03.591Z,101153.63
2023-01-11T15:39:44.929Z,101156.06
2023-01-11T15:42:34.541Z,101149.91
2023-01-11T15:45:25.254Z,101153.16
2023-01-11T15:48:17.686Z,101140.41
2023-01-11T15:50:56.924Z,101146.13
2023-01-11T15:53:49.179Z,101152.84
2023-01-11T15:56:37.400Z,101157.84
2023-01-11T15:59:16.178Z,101166.44
2023-01-11T16:01:54.739Z,101163.13
2023-01-11T16:04:40.637Z,101178.44
2023-01-11T16:07:28.445Z,101166.13
2023-01-11T16:10:15.904Z,101176.63
2023-01-11T16:13:01.997Z,101179.78
2023-01-11T16:16:13.212Z,101198.91
2023-01-11T16:18:45.014Z,101197.91
2023-01-11T16:21:19.546Z,101189.13
2023-01-11T16:23:46.743Z,101209.66
2023-01-11T16:26:21.264Z,101203.50
2023-01-11T16:28:54.904Z,101202.59
2023-01-11T16:31:25.405Z,101212.66
2023-01-11T16:33:53.381Z,101201.44
2023-01-11T16:36:22.365Z,101202.88
2023-01-11T16:38:55.684Z,101190.53
2023-01-11T16:41:25.296Z,101188.50
2023-01-11T16:43:59.213Z,101173.63
2023-01-11T16:46:47.342Z,101198.59
2023-01-11T16:49:17.409Z,101190.94
2023-01-11T16:51:49.189Z,101194.22
2023-01-11T16:54:26.363Z,101192.03
2023-01-11T16:56:53.941Z,101206.84
2023-01-11T16:59:34.888Z,101190.06
2023-01-11T17:02:05.369Z,101184.34
2023-01-11T17:04:36.355Z,101186.63
2023-01-11T17:07:22.973Z,101195.16
2023-01-11T17:09:49.839Z,101187.09
2023-01-11T17:12:18.480Z,101182.66
2023-01-11T17:14:53.595Z,101178.94
2023-01-11T17:17:21.393Z,101178.44
2023-01-11T17:19:49.946Z,101177.19
2023-01-11T17:22:28.124Z,101168.13
2023-01-11T17:25:01.165Z,101154.09
2023-01-11T17:27:33.278Z,101178.75
2023-01-11T17:30:02.483Z,101167.38
2023-01-11T17:32:42.987Z,101175.00
2023-01-11T17:35:22.259Z,101155.75
2023-01-11T17:37:52.158Z,101148.88
2023-01-11T17:40:25.135Z,101163.50
2023-01-11T17:43:11.375Z,101164.47
2023-01-11T17:45:38.667Z,101166.94
2023-01-11T17:48:13.035Z,101156.56
2023-01-11T17:50:47.744Z,101170.81
2023-01-11T17:53:18.289Z,101171.53
2023-01-11T17:56:05.710Z,101169.13
2023-01-11T17:58:35.870Z,101164.25
2023-01-11T18:01:07.626Z,101158.38
2023-01-11T18:03:52.693Z,101159.09
2023-01-11T18:06:34.177Z,101158.97
2023-01-11T18:09:04.769Z,101147.50
2023-01-11T18:11:36.089Z,101146.38
2023-01-11T18:14:05.770Z,101149.94
2023-01-11T18:16:34.963Z,101147.50
2023-01-11T18:19:21.388Z,101141.47
2023-01-11T18:21:53.387Z,101138.44
2023-01-11T18:24:21.440Z,101136.69
2023-01-11T18:26:50.852Z,101132.53
2023-01-11T18:29:37.245Z,101147.88
2023-01-11T18:32:05.408Z,101135.13
2023-01-11T18:34:34.201Z,101146.03
2023-01-11T18:37:07.116Z,101131.78
2023-01-11T18:39:36.275Z,101120.88
2023-01-11T18:42:07.424Z,101117.44
2023-01-11T18:44:37.454Z,101115.44
2023-01-11T18:47:16.723Z,101117.63
2023-01-11T18:49:43.576Z,101113.91
2023-01-11T18:52:11.360Z,101109.44
2023-01-11T18:54:38.423Z,101107.44
2023-01-11T18:57:07.534Z,101106.44
2023-01-11T18:59:39.439Z,101114.94
2023-01-11T19:02:27.159Z,101119.25
2023-01-11T19:04:56.216Z,101124.72
2023-01-11T19:07:26.315Z,101130.28
2023-01-11T19:09:55.449Z,101109.03
2023-01-11T19:12:23.510Z,101106.41
2023-01-11T19:14:50.145Z,101086.19
2023-01-11T19:17:19.264Z,101080.59
2023-01-11T19:19:46.403Z,101072.72
2023-01-11T19:22:13.449Z,101072.72
2023-01-11T19:24:42.619Z,101080.59
2023-01-11T19:27:09.487Z,101052.34
2023-01-11T19:29:38.303Z,101051.06
2023-01-11T19:32:07.580Z,101060.66
2023-01-11T19:34:36.607Z,101054.50
2023-01-11T19:37:03.245Z,101058.50
2023-01-11T19:39:30.086Z,101050.47
2023-01-11T19:42:03.149Z,101068.00
2023-01-11T19:44:34.024Z,101056.69
2023-01-11T19:47:11.228Z,101057.84
2023-01-11T19:49:39.737Z,101061.88
2023-01-11T19:52:12.494Z,101055.69
2023-01-11T19:54:43.350Z,101066.31
2023-01-11T19:57:15.681Z,101055.53
2023-01-11T19:59:42.574Z,101043.94
2023-01-11T20:02:14.748Z,101060.41
2023-01-11T20:04:41.863Z,101039.91
2023-01-11T20:07:10.484Z,101044.19
2023-01-11T20:09:37.910Z,101047.47
2023-01-11T20:12:15.741Z,101041.59
2023-01-11T20:14:44.113Z,101046.47
2023-01-11T20:17:10.940Z,101034.09
2023-01-11T20:19:37.988Z,101025.50
2023-01-11T20:22:04.922Z,101035.84
2023-01-11T20:24:33.833Z,101020.19
2023-01-11T20:27:02.013Z,101021.94
2023-01-11T20:29:31.148Z,101022.22
2023-01-11T20:32:13.386Z,101018.78
2023-01-11T20:34:47.319Z,101003.13
2023-01-11T20:37:16.510Z,101025.06
2023-01-11T20:41:01.821Z,101025.50
2023-01-11T20:43:28.422Z,101003.09
2023-01-11T20:45:59.237Z,101013.31
2023-01-11T20:48:25.871Z,101001.72
2023-01-11T20:50:52.412Z,101016.16
2023-01-11T20:53:19.021Z,101004.25
2023-01-11T20:55:47.765Z,101002.84
2023-01-11T20:58:14.306Z,101012.72
2023-01-11T21:00:40.875Z,100998.50
2023-01-11T21:03:07.466Z,100989.31
2023-01-11T21:05:37.239Z,100986.47
2023-01-11T21:08:03.878Z,101003.91
2023-01-11T21:10:30.418Z,101010.25
2023-01-11T21:15:24.924Z,101007.66
2023-01-11T21:17:53.742Z,100986.03
2023-01-11T21:20:20.282Z,100994.59
2023-01-11T21:22:49.297Z,101005.03
2023-01-11T21:25:18.268Z,100998.72
2023-01-11T21:27:47.144Z,100998.84
2023-01-11T21:30:13.737Z,101002.13
2023-01-11T21:32:42.360Z,100992.94
2023-01-11T21:35:12.262Z,100992.38
2023-01-11T21:37:38.881Z,101004.09
2023-01-11T21:40:06.029Z,100996.97
2023-01-11T21:42:32.543Z,101000.94
2023-01-11T21:45:01.322Z,100994.63
2023-01-11T21:47:27.946Z,100998.34
2023-01-11T21:49:54.475Z,101003.66
2023-01-11T21:52:21.015Z,101006.81
2023-01-11T21:54:49.643Z,100982.47
2023-01-11T21:57:16.212Z,100992.69
2023-01-11T21:59:42.800Z,100998.84
2023-01-11T22:02:10.740Z,100984.53
2023-01-11T22:04:37.522Z,100980.09
2023-01-11T22:07:05.175Z,100984.38
2023-01-11T22:09:32.509Z,101004.63
2023-01-11T22:11:59.052Z,100986.25
2023-01-11T22:14:25.639Z,100992.84
2023-01-11T22:16:53.126Z,100983.00
2023-01-11T22:19:19.739Z,100989.81
2023-01-11T22:21:46.387Z,100980.69
2023-01-11T22:24:13.237Z,100995.56
2023-01-11T22:26:40.540Z,100991.16
2023-01-11T22:29:17.368Z,100992.31
2023-01-11T22:31:51.301Z,101007.66
2023-01-11T22:34:18.980Z,101013.81
2023-01-11T22:36:48.551Z,101006.63
2023-01-11T22:39:19.697Z,101008.38
2023-01-11T22:41:48.412Z,100999.50
2023-01-11T22:44:17.677Z,101007.19
2023-01-11T22:46:44.500Z,101008.50
2023-01-11T22:49:12.056Z,100998.03
2023-01-11T22:51:39.858Z,100996.88
2023-01-11T22:54:06.453Z,101026.22
2023-01-11T22:56:33.403Z,101007.34
2023-01-11T22:59:00.451Z,101014.09
2023-01-11T23:01:30.065Z,101029.44
2023-01-11T23:04:00.353Z,101029.44
2023-01-11T23:06:37.379Z,101033.16
2023-01-11T23:09:10.544Z,101039.31
2023-01-11T23:11:57.633Z,101043.75
2023-01-11T23:14:30.727Z,101007.94
2023-01-11T23:17:04.072Z,100994.47
2023-01-11T23:19:32.127Z,101021.53
2023-01-11T23:21:58.964Z,101023.38
2023-01-11T23:24:27.997Z,101029.56
2023-01-11T23:26:54.694Z,101013.66
2023-01-11T23:29:21.283Z,101004.75
2023-01-11T23:31:47.830Z,101009.78
2023-01-11T23:34:14.680Z,101021.69
2023-01-11T23:36:44.090Z,101023.50
2023-01-11T23:39:14.588Z,101023.69
2023-01-11T23:42:00.231Z,101026.53
2023-01-11T23:44:26.810Z,101016.50
2023-01-11T23:47:12.296Z,101003.56
2023-01-11T23:49:43.568Z,101016.63
2023-01-11T23:52:10.946Z,101024.81
2023-01-11T23:54:37.850Z,101012.94
2023-01-11T23:57:04.957Z,101018.50
2023-01-11T23:59:32.195Z,101027.38
